Time;durP1;ratioP1;P1;durP2;ratioP2;P2;SDS_P1;SDS_P2;PMS_P1;PMS_P2;Temp;Humidity;BMP_temperature;BMP_pressure;BME280_temperature;BME280_humidity;BME280_pressure;Samples;Min_cycle;Max_cycle;Signal;HPM_P1;HPM_P2
2022/12/30 00:01:16;;;;;;;32.97;2.92;;;4.60;99.90;;;;;;5058457;28;20040;-75
2022/12/30 00:03:45;;;;;;;29.98;3.58;;;5.90;99.90;;;;;;5074873;28;20600;-76
2022/12/30 00:06:18;;;;;;;33.00;3.30;;;4.70;99.90;;;;;;5095949;28;20055;-77
2022/12/30 00:08:48;;;;;;;29.80;3.00;;;4.60;99.90;;;;;;5096059;28;20055;-76
2022/12/30 00:11:19;;;;;;;29.25;3.25;;;4.60;99.90;;;;;;5094681;28;20364;-76
2022/12/30 00:34:04;;;;;;;35.33;3.20;;;4.60;99.90;;;;;;5095554;28;20047;-77
2022/12/30 00:36:31;;;;;;;29.58;2.90;;;5.50;99.90;;;;;;5095454;28;20059;-76
2022/12/30 00:38:59;;;;;;;27.25;3.08;;;4.70;99.90;;;;;;5076665;28;20114;-76
2022/12/30 00:44:12;;;;;;;34.50;3.25;;;6.30;99.90;;;;;;5094261;28;20036;-76
2022/12/30 00:46:41;;;;;;;28.45;2.92;;;7.00;99.90;;;;;;5044947;28;20464;-76
2022/12/30 00:57:28;;;;;;;34.55;2.88;;;4.20;99.90;;;;;;5093983;28;20368;-76
2022/12/30 00:59:56;;;;;;;;;;;4.20;99.90;;;;;;5077687;28;20380;-76
2022/12/30 01:02:24;;;;;;;26.83;2.58;;;4.10;99.90;;;;;;5095163;28;19931;-75
2022/12/30 01:04:51;;;;;;;32.45;3.58;;;4.70;99.90;;;;;;5075906;28;20491;-75
2022/12/30 01:07:19;;;;;;;39.15;3.05;;;4.10;99.90;;;;;;5077242;28;20044;-76
2022/12/30 01:09:46;;;;;;;35.13;3.05;;;4.50;99.90;;;;;;5077685;28;20052;-76
2022/12/30 01:12:14;;;;;;;36.78;3.63;;;4.10;99.90;;;;;;5093772;28;20047;-75
2022/12/30 01:14:47;;;;;;;34.40;3.25;;;4.80;99.90;;;;;;5077440;28;20040;-76
2022/12/30 01:17:20;;;;;;;35.47;3.15;;;4.20;99.90;;;;;;5043036;28;20048;-75
2022/12/30 01:19:47;;;;;;;35.97;3.08;;;4.20;99.90;;;;;;5094659;28;20044;-75
2022/12/30 01:22:16;;;;;;;49.42;3.85;;;4.20;99.90;;;;;;5094747;28;20376;-75
2022/12/30 01:24:43;;;;;;;;;;;4.30;99.90;;;;;;5059859;28;20063;-76
2022/12/30 01:27:11;;;;;;;65.20;3.72;;;4.40;99.90;;;;;;5095178;28;20256;-76
2022/12/30 01:29:41;;;;;;;52.40;4.20;;;5.60;99.90;;;;;;5077139;28;20044;-76
2022/12/30 01:32:13;;;;;;;35.50;3.10;;;5.70;99.90;;;;;;5058977;28;20059;-77
2022/12/30 01:34:41;;;;;;;42.58;3.53;;;4.50;99.90;;;;;;5077079;28;20044;-75
2022/12/30 01:37:09;;;;;;;42.55;3.53;;;5.50;99.90;;;;;;5076293;28;20468;-75
2022/12/30 01:39:37;;;;;;;41.17;3.60;;;5.70;99.90;;;;;;5095021;28;20476;-76
2022/12/30 01:42:21;;;;;;;48.30;3.65;;;4.80;99.90;;;;;;5094903;28;20048;-75
2022/12/30 01:44:59;;;;;;;39.97;3.35;;;4.90;99.90;;;;;;5095967;28;20051;-77
2022/12/30 01:47:35;;;;;;;42.97;3.42;;;5.00;99.90;;;;;;5098666;28;20040;-77
2022/12/30 01:50:26;;;;;;;33.72;3.92;;;5.10;99.90;;;;;;5064394;28;20040;-77
2022/12/30 01:53:08;;;;;;;46.10;3.25;;;5.10;99.90;;;;;;5058154;28;20499;-75
2022/12/30 01:55:38;;;;;;;39.85;3.28;;;5.30;99.90;;;;;;5064836;28;20055;-75
2022/12/30 01:58:17;;;;;;;48.95;3.80;;;5.40;99.90;;;;;;5079711;28;20066;-76
2022/12/30 02:00:46;;;;;;;35.63;3.80;;;5.50;99.90;;;;;;5098558;28;20048;-77
2022/12/30 02:03:13;;;;;;;;;;;5.60;99.90;;;;;;5081247;28;20059;-76
2022/12/30 02:05:42;;;;;;;35.17;3.00;;;5.60;99.90;;;;;;5079846;28;19920;-76
2022/12/30 02:08:13;;;;;;;56.90;3.72;;;5.60;99.90;;;;;;5063968;28;20048;-77
2022/12/30 02:10:44;;;;;;;48.35;3.50;;;6.20;99.90;;;;;;5079746;28;20048;-77
2022/12/30 02:13:16;;;;;;;49.40;4.18;;;5.60;99.90;;;;;;5098152;28;20055;-76
2022/12/30 02:16:02;;;;;;;47.17;4.03;;;5.70;99.90;;;;;;5080356;28;20396;-75
2022/12/30 02:18:43;;;;;;;46.85;3.85;;;5.70;99.90;;;;;;5062806;28;20059;-76
2022/12/30 02:21:20;;;;;;;59.05;4.50;;;6.00;99.90;;;;;;5064198;28;20048;-76
2022/12/30 02:24:06;;;;;;;44.15;3.90;;;5.90;99.90;;;;;;5079142;28;20102;-75
2022/12/30 02:26:42;;;;;;;41.42;3.90;;;6.00;99.90;;;;;;5063517;28;20044;-76
2022/12/30 02:29:35;;;;;;;42.60;3.85;;;6.10;99.90;;;;;;5080799;28;20044;-76
2022/12/30 02:32:35;;;;;;;42.78;3.67;;;6.20;99.90;;;;;;5046050;28;20044;-76
2022/12/30 02:35:31;;;;;;;54.67;4.40;;;6.40;99.90;;;;;;5037377;28;20515;-76
2022/12/30 02:38:07;;;;;;;40.92;3.97;;;8.20;99.90;;;;;;5062431;28;20040;-74
2022/12/30 02:46:49;;;;;;;54.45;4.65;;;6.70;99.90;;;;;;5063056;28;20048;-75
2022/12/30 02:49:18;;;;;;;41.70;4.35;;;6.70;99.90;;;;;;5079868;28;20376;-75
2022/12/30 02:54:33;;;;;;;38.15;3.55;;;6.90;99.90;;;;;;5097741;28;20052;-75
2022/12/30 02:57:01;;;;;;;43.05;4.20;;;6.90;99.90;;;;;;5096422;28;20063;-75
2022/12/30 03:06:20;;;;;;;43.60;4.13;;;7.10;99.90;;;;;;5058649;28;20502;-75
2022/12/30 03:08:47;;;;;;;36.45;3.58;;;7.20;99.90;;;;;;5097151;28;20407;-74
2022/12/30 03:11:16;;;;;;;40.55;4.18;;;7.20;99.90;;;;;;5078252;28;20040;-75
2022/12/30 03:14:09;;;;;;;36.58;3.63;;;8.30;99.90;;;;;;5062668;28;20059;-74
2022/12/30 03:16:43;;;;;;;40.30;3.80;;;7.30;99.90;;;;;;5079750;28;20044;-75
2022/12/30 03:19:36;;;;;;;42.25;3.78;;;7.60;99.90;;;;;;5062522;28;20056;-75
2022/12/30 03:27:02;;;;;;;38.95;3.75;;;7.40;99.90;;;;;;5079258;28;20051;-74
2022/12/30 03:27:45;;;;;;;33.70;3.13;;;7.40;99.90;;;;;;5079251;28;20052;-75
2022/12/30 03:30:14;;;;;;;42.13;4.00;;;7.40;99.90;;;;;;5095762;28;20052;-76
2022/12/30 03:32:42;;;;;;;40.80;3.60;;;7.40;99.90;;;;;;5096809;28;20044;-75
2022/12/30 03:35:10;;;;;;;43.90;3.92;;;7.30;99.90;;;;;;5078816;28;20051;-74
2022/12/30 03:37:45;;;;;;;33.72;3.55;;;8.10;99.90;;;;;;5077840;28;20039;-74
2022/12/30 03:40:38;;;;;;;34.33;3.63;;;9.30;99.90;;;;;;5096708;28;20056;-75
2022/12/30 03:43:07;;;;;;;35.95;3.47;;;7.20;99.90;;;;;;5062420;28;20044;-74
2022/12/30 03:45:35;;;;;;;32.25;3.53;;;7.20;99.90;;;;;;5060810;28;20036;-74
2022/12/30 03:48:02;;;;;;;36.90;3.80;;;7.20;99.90;;;;;;5096950;28;20044;-74
2022/12/30 03:50:30;;;;;;;36.40;3.20;;;7.20;99.90;;;;;;5077711;28;20044;-77
2022/12/30 03:52:57;;;;;;;38.22;3.47;;;7.10;99.90;;;;;;5078786;28;20376;-75
2022/12/30 03:55:25;;;;;;;32.13;3.25;;;7.20;99.90;;;;;;5078365;28;20052;-77
2022/12/30 03:57:52;;;;;;;33.35;3.85;;;7.20;99.90;;;;;;5095045;28;20052;-75
2022/12/30 04:00:22;;;;;;;21.98;3.35;;;7.20;99.90;;;;;;5078922;28;20056;-76
2022/12/30 04:02:49;;;;;;;28.88;3.08;;;7.30;99.90;;;;;;5095986;28;20059;-77
2022/12/30 04:05:19;;;;;;;29.95;2.95;;;7.20;99.90;;;;;;5066395;28;20060;-77
2022/12/30 04:07:47;;;;;;;33.58;3.42;;;8.10;99.90;;;;;;5075157;28;20354;-77
2022/12/30 04:10:14;;;;;;;37.25;3.28;;;7.30;99.90;;;;;;5040538;28;20048;-76
2022/12/30 04:12:42;;;;;;;35.45;3.25;;;8.20;99.90;;;;;;5075532;28;20369;-76
2022/12/30 04:15:10;;;;;;;31.00;2.97;;;7.20;99.90;;;;;;5041951;28;20048;-76
2022/12/30 04:17:37;;;;;;;34.53;3.40;;;8.30;99.90;;;;;;5074739;28;20048;-76
2022/12/30 04:20:05;;;;;;;22.65;3.20;;;7.30;99.90;;;;;;5041291;28;20536;-76
2022/12/30 04:22:33;;;;;;;25.65;2.97;;;7.20;99.90;;;;;;5057915;28;20048;-76
2022/12/30 04:25:00;;;;;;;28.95;2.85;;;8.30;99.90;;;;;;5074018;28;20059;-76
2022/12/30 04:27:28;;;;;;;30.60;2.90;;;8.50;99.90;;;;;;5075984;28;20045;-76
2022/12/30 04:29:55;;;;;;;27.63;3.35;;;7.20;99.90;;;;;;5041550;28;20043;-77
2022/12/30 04:32:23;;;;;;;30.45;3.60;;;7.20;99.90;;;;;;5074228;28;20469;-77
2022/12/30 04:34:50;;;;;;;31.55;3.00;;;9.70;99.90;;;;;;5075810;28;20049;-76
2022/12/30 04:37:18;;;;;;;27.65;4.07;;;8.30;99.90;;;;;;5056859;28;20049;-76
2022/12/30 04:39:45;;;;;;;29.45;3.20;;;9.00;99.90;;;;;;5075231;28;20048;-76
2022/12/30 04:42:13;;;;;;;33.92;2.80;;;9.40;99.90;;;;;;5057621;28;20048;-76
2022/12/30 04:44:40;;;;;;;32.10;3.10;;;7.20;99.90;;;;;;5056767;28;20044;-77
2022/12/30 04:47:08;;;;;;;24.40;2.63;;;8.40;99.90;;;;;;5057722;28;20373;-77
2022/12/30 04:49:35;;;;;;;25.35;2.78;;;7.30;99.90;;;;;;5057819;28;20055;-76
2022/12/30 04:52:03;;;;;;;28.83;2.65;;;7.30;99.90;;;;;;5073744;28;20049;-77
2022/12/30 04:54:30;;;;;;;34.33;3.10;;;7.30;99.90;;;;;;5040707;28;20060;-77
2022/12/30 04:56:58;;;;;;;30.08;3.13;;;7.30;99.90;;;;;;5073951;28;20044;-76
2022/12/30 04:59:26;;;;;;;33.35;2.85;;;7.80;99.90;;;;;;5041269;28;20045;-77
2022/12/30 05:01:53;;;;;;;35.28;2.92;;;7.30;99.90;;;;;;5057616;28;20048;-76
2022/12/30 05:04:21;;;;;;;29.75;3.28;;;7.40;99.90;;;;;;5059158;28;20053;-77
2022/12/30 05:06:48;;;;;;;30.90;3.20;;;7.40;99.90;;;;;;5095057;28;20044;-76
2022/12/30 05:09:16;;;;;;;30.25;2.90;;;8.80;99.90;;;;;;5077360;28;20052;-76
2022/12/30 05:11:43;;;;;;;35.53;3.85;;;8.90;99.90;;;;;;5076254;28;20044;-76
2022/12/30 05:14:11;;;;;;;23.52;2.70;;;7.70;99.90;;;;;;5095204;28;20044;-77
2022/12/30 05:16:38;;;;;;;25.52;2.78;;;7.70;99.90;;;;;;5095030;28;20047;-76
2022/12/30 05:19:07;;;;;;;33.13;3.28;;;7.70;99.90;;;;;;5075113;28;20044;-76
2022/12/30 05:21:34;;;;;;;;;;;7.80;99.90;;;;;;5095335;28;20048;-77
2022/12/30 05:26:48;;;;;;;23.95;2.80;;;7.80;99.90;;;;;;5094730;28;20047;-77
2022/12/30 05:29:16;;;;;;;24.40;2.63;;;7.80;99.90;;;;;;5077079;28;20059;-77
2022/12/30 05:31:43;;;;;;;29.85;3.00;;;10.00;99.90;;;;;;5075709;28;20048;-77
2022/12/30 05:34:11;;;;;;;26.10;2.80;;;7.80;99.90;;;;;;5077383;28;20040;-76
2022/12/30 05:36:39;;;;;;;20.70;2.53;;;7.80;99.90;;;;;;5077333;28;20055;-76
2022/12/30 05:39:06;;;;;;;21.23;2.85;;;7.90;99.90;;;;;;5093529;28;20464;-76
2022/12/30 05:41:33;;;;;;;29.48;2.97;;;8.10;99.90;;;;;;5060538;28;20364;-77
2022/12/30 05:44:01;;;;;;;28.65;3.10;;;9.70;99.90;;;;;;5075839;28;20048;-76
2022/12/30 05:46:28;;;;;;;19.50;2.70;;;8.00;99.90;;;;;;5094604;28;20487;-77
2022/12/30 05:48:57;;;;;;;30.67;3.45;;;8.00;99.90;;;;;;5094467;28;20479;-77
2022/12/30 05:51:25;;;;;;;32.20;3.42;;;8.00;99.90;;;;;;5093303;28;20047;-76
2022/12/30 05:53:52;;;;;;;26.15;3.03;;;10.00;99.90;;;;;;5094613;28;20376;-76
2022/12/30 05:56:20;;;;;;;29.08;3.33;;;9.30;99.90;;;;;;5094757;28;20067;-76
2022/12/30 05:58:47;;;;;;;23.70;2.60;;;8.00;99.90;;;;;;5075547;28;20377;-76
2022/12/30 06:01:14;;;;;;;29.13;3.20;;;8.10;99.90;;;;;;5076884;28;20048;-77
2022/12/30 06:03:42;;;;;;;26.73;3.13;;;8.10;99.90;;;;;;5093395;28;20044;-77
2022/12/30 06:06:10;;;;;;;29.73;3.28;;;9.10;99.90;;;;;;5076696;28;20067;-76
2022/12/30 06:08:39;;;;;;;25.73;3.15;;;8.20;99.90;;;;;;5094324;28;20350;-76
2022/12/30 06:11:07;;;;;;;23.33;3.15;;;10.30;99.90;;;;;;5093180;28;20368;-76
2022/12/30 06:13:35;;;;;;;24.08;3.30;;;9.40;99.90;;;;;;5060065;28;20040;-76
2022/12/30 06:16:02;;;;;;;22.13;3.17;;;8.30;99.90;;;;;;5094460;28;20048;-77
2022/12/30 06:18:30;;;;;;;22.25;2.65;;;8.30;99.90;;;;;;5093315;28;20048;-77
2022/12/30 06:20:57;;;;;;;32.25;3.40;;;10.40;99.90;;;;;;5076420;28;20082;-76
2022/12/30 06:23:25;;;;;;;26.77;3.20;;;8.30;99.90;;;;;;5076531;28;20165;-77
2022/12/30 06:25:58;;;;;;;27.55;2.80;;;8.70;99.90;;;;;;5093971;28;20349;-76
2022/12/30 06:28:27;;;;;;;24.58;3.05;;;8.40;99.90;;;;;;5076902;28;20040;-75
2022/12/30 06:30:54;;;;;;;20.58;3.03;;;10.20;99.90;;;;;;5077738;28;20047;-76
2022/12/30 06:33:23;;;;;;;31.08;3.47;;;10.20;99.90;;;;;;5080527;28;20499;-76
2022/12/30 06:35:51;;;;;;;19.75;3.20;;;8.40;99.90;;;;;;5080269;28;20048;-76
2022/12/30 06:38:18;;;;;;;32.17;3.65;;;9.70;99.90;;;;;;5096620;28;20044;-77
2022/12/30 06:40:46;;;;;;;21.65;3.08;;;8.80;99.90;;;;;;5063226;28;20051;-77
2022/12/30 06:43:14;;;;;;;21.38;3.10;;;9.60;99.90;;;;;;5080406;28;20373;-76
2022/12/30 06:45:42;;;;;;;28.17;3.40;;;8.70;99.90;;;;;;5078641;28;20067;-76
2022/12/30 06:48:10;;;;;;;21.50;2.70;;;8.70;99.90;;;;;;5097720;28;20058;-76
2022/12/30 06:50:37;;;;;;;30.13;2.97;;;8.70;99.90;;;;;;5062005;28;20059;-77
2022/12/30 06:53:06;;;;;;;25.58;2.90;;;8.80;99.90;;;;;;5097348;28;20063;-77
2022/12/30 06:55:33;;;;;;;26.55;3.42;;;8.80;99.90;;;;;;5063504;28;20063;-77
2022/12/30 06:58:03;;;;;;;26.92;3.45;;;10.60;99.90;;;;;;5078794;28;20052;-77
2022/12/30 07:00:31;;;;;;;30.90;3.38;;;9.40;99.90;;;;;;5079684;28;20373;-77
2022/12/30 07:02:59;;;;;;;25.88;3.17;;;8.80;99.90;;;;;;5046600;28;20075;-76
2022/12/30 07:05:26;;;;;;;17.27;2.90;;;8.80;99.90;;;;;;5077976;28;20063;-76
2022/12/30 07:07:54;;;;;;;25.38;3.38;;;9.90;99.90;;;;;;5097323;28;20040;-76
2022/12/30 07:10:21;;;;;;;24.98;2.97;;;10.40;99.90;;;;;;5078400;28;20372;-76
2022/12/30 07:12:49;;;;;;;19.38;3.00;;;9.80;99.90;;;;;;5079486;28;20055;-76
2022/12/30 07:15:16;;;;;;;14.23;2.42;;;9.60;99.90;;;;;;5079455;28;20048;-76
2022/12/30 07:17:44;;;;;;;20.65;2.78;;;8.90;99.90;;;;;;5061861;28;20044;-77
2022/12/30 07:20:12;;;;;;;23.48;2.97;;;8.90;99.90;;;;;;5079528;28;20487;-75
2022/12/30 07:22:40;;;;;;;20.38;2.97;;;9.00;99.90;;;;;;5097005;28;20059;-77
2022/12/30 07:25:08;;;;;;;25.75;2.80;;;11.00;99.90;;;;;;5095849;28;20047;-75
2022/12/30 07:27:36;;;;;;;20.67;3.00;;;9.00;99.90;;;;;;5096933;28;20040;-75
2022/12/30 07:30:04;;;;;;;24.98;3.05;;;9.20;99.90;;;;;;5079348;28;20044;-77
2022/12/30 07:32:32;;;;;;;18.80;3.05;;;10.00;99.90;;;;;;5079134;28;20063;-76
2022/12/30 07:34:59;;;;;;;22.98;3.03;;;9.20;99.90;;;;;;5078847;28;20460;-76
2022/12/30 07:37:27;;;;;;;19.38;3.33;;;10.60;99.90;;;;;;5095814;28;20456;-77
2022/12/30 07:39:54;;;;;;;20.88;2.63;;;9.20;99.90;;;;;;5062499;28;20468;-76
2022/12/30 07:42:22;;;;;;;31.08;3.30;;;9.00;99.90;;;;;;5095752;28;20048;-77
2022/12/30 07:44:49;;;;;;;24.50;3.17;;;9.50;99.90;;;;;;5095333;28;20040;-75
2022/12/30 07:47:17;;;;;;;24.63;3.22;;;9.00;99.90;;;;;;5078919;28;20040;-76
2022/12/30 07:49:44;;;;;;;22.80;2.90;;;8.90;99.90;;;;;;5078961;28;20040;-76
2022/12/30 07:52:12;;;;;;;22.80;3.25;;;10.20;99.90;;;;;;5077313;28;20055;-77
2022/12/30 07:54:39;;;;;;;29.48;2.83;;;10.10;99.90;;;;;;5096346;28;20036;-75
2022/12/30 07:57:07;;;;;;;26.17;3.22;;;8.90;99.90;;;;;;5095643;28;20051;-75
2022/12/30 07:59:34;;;;;;;30.48;3.25;;;8.90;99.90;;;;;;5116612;28;20058;-75
2022/12/30 08:02:03;;;;;;;28.67;3.38;;;8.90;99.90;;;;;;5098702;28;20048;-75
2022/12/30 08:04:30;;;;;;;26.08;3.10;;;9.40;99.90;;;;;;5097655;28;20039;-76
2022/12/30 08:07:18;;;;;;;19.00;3.10;;;8.80;99.90;;;;;;5116378;28;20054;-77
2022/12/30 08:09:45;;;;;;;22.98;2.63;;;10.90;99.90;;;;;;5116626;28;20364;-75
2022/12/30 08:12:13;;;;;;;27.65;3.40;;;8.80;99.90;;;;;;5080423;28;20051;-77
2022/12/30 08:14:40;;;;;;;19.02;2.50;;;8.80;99.90;;;;;;5089885;28;20054;-77
2022/12/30 08:17:08;;;;;;;19.63;2.53;;;10.20;99.90;;;;;;5084941;28;20400;-77
2022/12/30 08:19:35;;;;;;;19.83;2.53;;;9.60;99.90;;;;;;5095895;28;20047;-78
2022/12/30 08:22:04;;;;;;;14.25;2.67;;;8.90;99.90;;;;;;5095683;28;20052;-76
2022/12/30 08:24:32;;;;;;;23.55;2.33;;;8.70;99.90;;;;;;5076073;28;20052;-75
2022/12/30 08:26:59;;;;;;;19.42;2.50;;;9.90;99.90;;;;;;5095322;28;20048;-77
2022/12/30 08:29:27;;;;;;;14.80;2.05;;;8.70;99.90;;;;;;5077654;28;20044;-79
2022/12/30 08:31:57;;;;;;;16.10;1.95;;;8.70;99.90;;;;;;5094226;28;20468;-75
2022/12/30 08:34:25;;;;;;;14.15;1.92;;;8.70;99.90;;;;;;5077635;28;20048;-74
2022/12/30 08:36:54;;;;;;;15.07;2.03;;;8.70;99.90;;;;;;5076106;28;20067;-74
2022/12/30 08:39:22;;;;;;;8.95;1.75;;;8.90;99.90;;;;;;5095038;28;20048;-73
2022/12/30 08:41:49;;;;;;;13.57;1.92;;;8.70;99.90;;;;;;5077212;28;20055;-75
2022/12/30 08:44:24;;;;;;;13.73;1.92;;;8.80;99.90;;;;;;5094045;28;20487;-76
2022/12/30 08:46:51;;;;;;;16.27;1.80;;;10.20;99.90;;;;;;5094921;28;20044;-74
2022/12/30 08:49:20;;;;;;;14.30;1.60;;;10.20;99.90;;;;;;5094964;28;20051;-74
2022/12/30 08:51:48;;;;;;;13.95;1.92;;;8.60;99.90;;;;;;5075804;28;20040;-76
2022/12/30 08:54:16;;;;;;;13.18;1.77;;;8.60;99.90;;;;;;5094913;28;20461;-77
2022/12/30 08:56:45;;;;;;;9.32;2.20;;;8.60;99.90;;;;;;5102933;28;20063;-75
2022/12/30 08:59:13;;;;;;;13.73;2.00;;;8.60;99.90;;;;;;5073332;28;20055;-74
2022/12/30 09:01:44;;;;;;;11.68;1.73;;;9.30;99.90;;;;;;5107746;28;20051;-76
2022/12/30 09:04:12;;;;;;;13.35;1.88;;;8.60;99.90;;;;;;5092817;28;20074;-75
2022/12/30 09:06:41;;;;;;;9.52;1.67;;;8.60;99.90;;;;;;5098536;28;20343;-74
2022/12/30 09:09:11;;;;;;;15.45;1.77;;;8.60;99.90;;;;;;5114311;28;20050;-75
2022/12/30 09:11:40;;;;;;;10.20;1.45;;;8.60;99.90;;;;;;5112993;28;20048;-75
2022/12/30 09:14:10;;;;;;;8.20;1.58;;;9.00;99.90;;;;;;5080444;28;20047;-75
2022/12/30 09:16:37;;;;;;;12.38;1.52;;;8.60;99.90;;;;;;5097108;28;20043;-75
2022/12/30 09:19:05;;;;;;;11.05;1.90;;;8.70;99.90;;;;;;5096041;28;20368;-76
2022/12/30 09:21:33;;;;;;;6.72;1.30;;;8.60;99.90;;;;;;5097016;28;20044;-77
2022/12/30 09:24:00;;;;;;;;;;;8.70;99.90;;;;;;5114206;28;20376;-75
2022/12/30 09:26:28;;;;;;;6.20;1.27;;;8.60;99.90;;;;;;5097135;28;19920;-75
2022/12/30 09:28:56;;;;;;;6.90;1.40;;;9.90;99.90;;;;;;5097134;28;20040;-77
2022/12/30 09:31:24;;;;;;;8.35;1.58;;;9.00;99.90;;;;;;5113562;28;20047;-75
2022/12/30 09:33:52;;;;;;;;;;;9.40;99.90;;;;;;5097490;28;20040;-77
2022/12/30 09:36:19;;;;;;;8.63;1.42;;;8.70;99.90;;;;;;5079992;28;19920;-78
2022/12/30 09:38:48;;;;;;;6.32;1.60;;;8.70;99.90;;;;;;5113714;28;20058;-75
2022/12/30 09:43:14;;;;;;;8.35;1.27;;;8.70;99.90;;;;;;5080246;28;20051;-75
2022/12/30 09:44:51;;;;;;;6.57;0.95;;;8.70;99.90;;;;;;5113677;28;20048;-76
2022/12/30 09:47:36;;;;;;;6.50;0.98;;;8.80;99.90;;;;;;5080184;28;20384;-75
2022/12/30 09:50:20;;;;;;;5.90;1.10;;;9.80;99.90;;;;;;5097184;28;20039;-75
2022/12/30 09:52:56;;;;;;;4.70;0.82;;;10.50;99.90;;;;;;5114873;28;20051;-76
2022/12/30 09:55:28;;;;;;;7.70;1.00;;;8.80;99.90;;;;;;5080483;28;20048;-74
2022/12/30 09:57:59;;;;;;;6.07;1.10;;;9.90;99.90;;;;;;5113557;28;20051;-77
2022/12/30 10:00:29;;;;;;;6.40;0.98;;;8.80;99.90;;;;;;5113957;28;20052;-75
2022/12/30 10:03:10;;;;;;;5.43;0.77;;;8.90;99.90;;;;;;5115433;28;20043;-75
2022/12/30 10:06:18;;;;;;;6.53;1.00;;;8.90;99.90;;;;;;5117653;28;20058;-74
2022/12/30 10:08:57;;;;;;;7.25;1.00;;;9.00;99.90;;;;;;5101015;28;20380;-77
2022/12/30 10:12:02;;;;;;;4.50;0.60;;;9.00;99.90;;;;;;5083355;28;20356;-78
2022/12/30 10:14:54;;;;;;;6.05;0.85;;;9.10;99.90;;;;;;5101113;28;20067;-75
2022/12/30 10:17:39;;;;;;;7.78;0.80;;;9.10;99.90;;;;;;5099022;28;20048;-74
2022/12/30 10:20:07;;;;;;;6.03;0.68;;;9.20;99.90;;;;;;5100921;28;20483;-74
2022/12/30 10:22:57;;;;;;;3.22;0.47;;;9.20;99.90;;;;;;5100787;28;20054;-76
2022/12/30 10:25:39;;;;;;;5.38;0.73;;;9.30;99.90;;;;;;5117273;28;20345;-77
2022/12/30 10:28:10;;;;;;;2.08;0.45;;;9.30;99.90;;;;;;5118718;28;20043;-76
2022/12/30 10:30:42;;;;;;;2.72;0.40;;;9.30;99.90;;;;;;5099817;28;20066;-76
2022/12/30 10:33:17;;;;;;;2.60;0.40;;;9.30;99.90;;;;;;5118402;28;20058;-74
2022/12/30 10:35:47;;;;;;;2.25;0.50;;;9.40;99.90;;;;;;5100379;28;20043;-76
2022/12/30 10:38:28;;;;;;;4.15;0.68;;;10.10;99.90;;;;;;5117136;28;20044;-74
2022/12/30 10:41:14;;;;;;;3.00;0.50;;;9.90;99.90;;;;;;5118296;28;20384;-77
2022/12/30 10:44:11;;;;;;;2.80;0.38;;;9.40;99.90;;;;;;5117085;28;20054;-77
2022/12/30 10:47:00;;;;;;;6.07;0.60;;;9.40;99.90;;;;;;5100741;28;20043;-75
2022/12/30 10:50:20;;;;;;;2.20;0.60;;;9.50;99.90;;;;;;5100720;28;20051;-74
2022/12/30 10:52:48;;;;;;;2.75;0.40;;;9.50;99.90;;;;;;5047645;28;20066;-76
2022/12/30 10:55:31;;;;;;;1.17;0.50;;;9.50;99.90;;;;;;5100536;28;20046;-75
2022/12/30 10:58:06;;;;;;;1.92;0.35;;;9.70;99.90;;;;;;5099144;28;20051;-77
2022/12/30 11:00:35;;;;;;;2.88;0.52;;;9.50;99.90;;;;;;5100033;28;20046;-75
2022/12/30 11:03:11;;;;;;;0.55;0.15;;;10.10;99.90;;;;;;5099882;28;20062;-76
2022/12/30 11:05:39;;;;;;;1.70;0.35;;;9.60;99.90;;;;;;5116421;28;20059;-74
2022/12/30 11:08:21;;;;;;;3.10;0.50;;;9.60;99.90;;;;;;5117933;28;20471;-75
2022/12/30 11:11:04;;;;;;;3.95;0.50;;;9.70;99.90;;;;;;5098681;28;20058;-77
2022/12/30 11:16:33;;;;;;;0.60;0.28;;;9.80;99.90;;;;;;5098883;28;20048;-75
2022/12/30 11:19:03;;;;;;;3.95;0.43;;;9.90;99.90;;;;;;5116465;28;20047;-75
2022/12/30 11:21:38;;;;;;;1.85;0.30;;;10.00;99.90;;;;;;5099385;28;20510;-76
2022/12/30 11:24:14;;;;;;;2.83;0.47;;;11.10;99.90;;;;;;5116190;28;20059;-75
2022/12/30 11:26:46;;;;;;;3.55;0.40;;;10.10;99.90;;;;;;5099508;28;20058;-77
2022/12/30 11:29:21;;;;;;;3.97;0.60;;;10.20;99.90;;;;;;5100070;28;20043;-74
2022/12/30 11:31:53;;;;;;;4.25;0.50;;;10.30;99.90;;;;;;5081506;28;20043;-76
2022/12/30 11:34:29;;;;;;;5.25;0.70;;;10.90;99.90;;;;;;5099240;28;20055;-76
2022/12/30 11:36:58;;;;;;;5.57;0.80;;;10.40;99.90;;;;;;5065219;28;20045;-77
2022/12/30 11:39:32;;;;;;;8.73;0.82;;;10.60;99.90;;;;;;5116758;28;20039;-78
2022/12/30 11:42:01;;;;;;;3.58;0.63;;;10.70;99.90;;;;;;5098700;28;20109;-76
2022/12/30 11:44:32;;;;;;;4.57;0.77;;;10.80;99.90;;;;;;5115448;28;20048;-77
2022/12/30 11:47:11;;;;;;;5.38;0.98;;;10.90;99.90;;;;;;5099016;28;20082;-77
2022/12/30 11:49:46;;;;;;;5.60;1.20;;;11.00;99.90;;;;;;5116737;28;20043;-74
2022/12/30 11:52:24;;;;;;;7.18;1.40;;;11.10;99.90;;;;;;5097747;28;20448;-77
2022/12/30 11:54:58;;;;;;;6.55;0.95;;;11.20;99.90;;;;;;5098575;28;20040;-74
2022/12/30 11:57:30;;;;;;;3.22;1.00;;;11.30;99.90;;;;;;5115420;28;20050;-75
2022/12/30 12:00:05;;;;;;;5.57;0.93;;;11.30;99.90;;;;;;5099027;28;20036;-76
2022/12/30 12:02:45;;;;;;;5.55;0.82;;;11.40;99.90;;;;;;5098416;28;20055;-76
2022/12/30 12:05:22;;;;;;;4.75;0.70;;;11.50;99.90;;;;;;5115040;28;20467;-75
2022/12/30 12:07:54;;;;;;;8.40;0.70;;;11.60;99.90;;;;;;5098265;28;20044;-75
2022/12/30 12:10:28;;;;;;;5.60;0.60;;;11.60;99.90;;;;;;5096356;28;20040;-76
2022/12/30 12:13:16;;;;;;;9.88;1.08;;;11.70;99.90;;;;;;5115888;28;20062;-76
2022/12/30 12:15:48;;;;;;;8.40;1.00;;;11.70;99.90;;;;;;5115999;28;20468;-79
2022/12/30 12:18:28;;;;;;;9.35;1.00;;;11.90;99.90;;;;;;5114932;28;20043;-77
2022/12/30 12:21:05;;;;;;;4.60;0.63;;;11.90;99.90;;;;;;5115944;28;20089;-77
2022/12/30 12:23:56;;;;;;;6.68;0.70;;;12.00;99.90;;;;;;5101202;28;20101;-79
2022/12/30 12:26:45;;;;;;;6.35;0.90;;;12.10;99.90;;;;;;5086095;28;20388;-78
2022/12/30 12:29:15;;;;;;;7.07;0.70;;;12.20;99.90;;;;;;5071275;28;20054;-79
2022/12/30 12:32:01;;;;;;;;;;;12.30;99.90;;;;;;5114794;28;20055;-78
2022/12/30 12:35:14;;;;;;;5.43;0.60;;;12.40;99.90;;;;;;5097986;28;19920;-79
2022/12/30 12:37:51;;;;;;;3.63;0.70;;;11.70;99.90;;;;;;5096788;28;20059;-78
2022/12/30 12:40:35;;;;;;;5.32;0.70;;;13.00;99.90;;;;;;5116191;28;20044;-78
2022/12/30 12:43:22;;;;;;;6.03;0.95;;;12.60;99.90;;;;;;5097889;28;20047;-80
2022/12/30 12:46:14;;;;;;;4.93;0.93;;;12.60;99.90;;;;;;5097064;28;20040;-80
2022/12/30 12:49:19;;;;;;;8.77;1.00;;;12.70;99.90;;;;;;5098259;28;20456;-79
2022/12/30 12:52:10;;;;;;;12.48;1.52;;;12.70;99.90;;;;;;5096621;28;20050;-77
2022/12/30 12:55:15;;;;;;;8.43;1.10;;;12.70;99.90;;;;;;5086257;28;20027;-80
2022/12/30 12:58:03;;;;;;;6.03;1.33;;;12.70;99.90;;;;;;5095666;28;20035;-81
2022/12/30 13:00:52;;;;;;;;;;;12.70;99.90;;;;;;5097920;28;20058;-80
2022/12/30 13:04:21;;;;;;;3.25;1.08;;;12.70;99.90;;;;;;5113619;28;19919;-78
2022/12/30 13:07:02;;;;;;;13.32;1.70;;;12.70;99.90;;;;;;5097765;28;20044;-82
2022/12/30 13:09:39;;;;;;;7.13;1.02;;;12.60;99.90;;;;;;5079984;28;20475;-81
2022/12/30 13:12:30;;;;;;;13.38;1.75;;;12.60;99.90;;;;;;5095948;28;20055;-81
2022/12/30 13:15:19;;;;;;;13.38;1.73;;;12.60;99.90;;;;;;5109480;28;20048;-81
2022/12/30 13:17:47;;;;;;;14.20;1.65;;;12.60;99.90;;;;;;5059410;28;20051;-79
2022/12/30 13:20:22;;;;;;;8.63;1.60;;;13.10;99.90;;;;;;5094599;28;20054;-79
2022/12/30 13:22:50;;;;;;;12.75;1.83;;;12.70;99.90;;;;;;5076642;28;20060;-77
2022/12/30 13:25:44;;;;;;;12.23;2.00;;;12.60;99.90;;;;;;5061096;28;20054;-77
2022/12/30 13:28:26;;;;;;;10.10;1.67;;;12.60;99.90;;;;;;5085482;28;20051;-77
2022/12/30 13:31:12;;;;;;;9.70;1.38;;;12.60;99.90;;;;;;5092831;28;20040;-79
2022/12/30 13:33:40;;;;;;;9.93;1.55;;;12.50;99.90;;;;;;5084609;28;20052;-83
2022/12/30 13:36:56;;;;;;;13.43;2.20;;;12.50;99.90;;;;;;5076195;28;20396;-79
2022/12/30 13:39:46;;;;;;;14.85;2.25;;;12.50;99.90;;;;;;5076771;28;20044;-77
2022/12/30 13:42:31;;;;;;;15.32;2.30;;;12.50;99.90;;;;;;5080794;28;20464;-75
2022/12/30 13:45:00;;;;;;;10.45;1.77;;;12.60;99.90;;;;;;5097427;28;20044;-78
2022/12/30 13:47:35;;;;;;;18.02;2.08;;;12.50;99.90;;;;;;5081080;28;20051;-76
2022/12/30 13:50:36;;;;;;;14.32;2.08;;;12.50;99.90;;;;;;5088747;28;20077;-76
2022/12/30 13:53:22;;;;;;;20.25;2.45;;;12.50;99.90;;;;;;5046676;28;20054;-77
2022/12/30 13:55:51;;;;;;;17.98;2.22;;;12.40;99.90;;;;;;5083883;28;20043;-77
2022/12/30 13:58:30;;;;;;;16.58;2.40;;;12.40;99.90;;;;;;5083468;28;20452;-77
2022/12/30 14:01:31;;;;;;;14.60;2.30;;;12.40;99.90;;;;;;5118885;28;20363;-78
2022/12/30 14:04:12;;;;;;;18.52;3.13;;;12.30;99.90;;;;;;5099765;28;20047;-78
2022/12/30 14:06:47;;;;;;;20.70;2.90;;;12.30;99.90;;;;;;5118737;28;20040;-78
2022/12/30 14:09:33;;;;;;;17.75;2.78;;;12.50;99.90;;;;;;5067845;28;20051;-77
2022/12/30 14:12:03;;;;;;;19.63;2.35;;;12.30;99.90;;;;;;5099874;28;20071;-77
2022/12/30 14:14:39;;;;;;;17.38;2.88;;;12.40;99.90;;;;;;5100635;28;20044;-77
2022/12/30 14:17:15;;;;;;;18.65;2.67;;;12.40;99.90;;;;;;5118074;28;20726;-76